sensor_id;sensor_type;location;lat;lon;timestamp;pressure;altitude;pressure_sealevel;temperature
66299;BMP180;53098;47.658;8.578;2023-07-20T00:01:02;96361.00;;;20.40
66299;BMP180;53098;47.658;8.578;2023-07-20T00:03:27;96372.00;;;20.40
66299;BMP180;53098;47.658;8.578;2023-07-20T00:05:53;96359.00;;;20.10
66299;BMP180;53098;47.658;8.578;2023-07-20T00:08:18;96368.00;;;20.20
66299;BMP180;53098;47.658;8.578;2023-07-20T00:10:44;96358.00;;;20.20
66299;BMP180;53098;47.658;8.578;2023-07-20T00:13:11;96364.00;;;20.00
66299;BMP180;53098;47.658;8.578;2023-07-20T00:15:36;96360.00;;;19.90
66299;BMP180;53098;47.658;8.578;2023-07-20T00:18:02;96362.00;;;20.10
66299;BMP180;53098;47.658;8.578;2023-07-20T00:20:28;96364.00;;;20.10
66299;BMP180;53098;47.658;8.578;2023-07-20T00:22:53;96355.00;;;20.10
66299;BMP180;53098;47.658;8.578;2023-07-20T00:25:18;96358.00;;;20.00
66299;BMP180;53098;47.658;8.578;2023-07-20T00:27:44;96369.00;;;20.00
66299;BMP180;53098;47.658;8.578;2023-07-20T00:30:10;96370.00;;;20.10
66299;BMP180;53098;47.658;8.578;2023-07-20T00:32:35;96363.00;;;19.90
66299;BMP180;53098;47.658;8.578;2023-07-20T00:35:01;96364.00;;;20.10
66299;BMP180;53098;47.658;8.578;2023-07-20T00:37:26;96362.00;;;20.20
66299;BMP180;53098;47.658;8.578;2023-07-20T00:39:53;96359.00;;;20.00
66299;BMP180;53098;47.658;8.578;2023-07-20T00:42:18;96365.00;;;20.00
66299;BMP180;53098;47.658;8.578;2023-07-20T00:44:43;96357.00;;;20.00
66299;BMP180;53098;47.658;8.578;2023-07-20T00:47:09;96361.00;;;20.00
66299;BMP180;53098;47.658;8.578;2023-07-20T00:49:35;96372.00;;;19.90
66299;BMP180;53098;47.658;8.578;2023-07-20T00:52:01;96359.00;;;19.90
66299;BMP180;53098;47.658;8.578;2023-07-20T00:54:27;96355.00;;;19.90
66299;BMP180;53098;47.658;8.578;2023-07-20T00:56:54;96362.00;;;20.00
66299;BMP180;53098;47.658;8.578;2023-07-20T00:59:20;96356.00;;;20.00
66299;BMP180;53098;47.658;8.578;2023-07-20T01:01:46;96367.00;;;19.80
66299;BMP180;53098;47.658;8.578;2023-07-20T01:04:11;96358.00;;;19.90
66299;BMP180;53098;47.658;8.578;2023-07-20T01:09:11;96361.00;;;20.10
66299;BMP180;53098;47.658;8.578;2023-07-20T01:14:19;96360.00;;;20.20
66299;BMP180;53098;47.658;8.578;2023-07-20T01:16:45;96358.00;;;20.20
66299;BMP180;53098;47.658;8.578;2023-07-20T01:19:12;96355.00;;;19.80
66299;BMP180;53098;47.658;8.578;2023-07-20T01:32:25;96356.00;;;20.30
66299;BMP180;53098;47.658;8.578;2023-07-20T01:34:52;96352.00;;;19.80
66299;BMP180;53098;47.658;8.578;2023-07-20T01:37:20;96350.00;;;19.80
66299;BMP180;53098;47.658;8.578;2023-07-20T01:39:46;96353.00;;;19.90
66299;BMP180;53098;47.658;8.578;2023-07-20T01:42:12;96356.00;;;20.30
66299;BMP180;53098;47.658;8.578;2023-07-20T01:44:38;96353.00;;;20.50
66299;BMP180;53098;47.658;8.578;2023-07-20T01:47:04;96356.00;;;20.70
66299;BMP180;53098;47.658;8.578;2023-07-20T01:49:29;96351.00;;;20.70
66299;BMP180;53098;47.658;8.578;2023-07-20T01:51:54;96352.00;;;20.80
66299;BMP180;53098;47.658;8.578;2023-07-20T01:54:20;96354.00;;;20.60
66299;BMP180;53098;47.658;8.578;2023-07-20T01:56:45;96350.00;;;20.80
66299;BMP180;53098;47.658;8.578;2023-07-20T01:59:11;96349.00;;;20.30
66299;BMP180;53098;47.658;8.578;2023-07-20T02:01:36;96357.00;;;20.30
66299;BMP180;53098;47.658;8.578;2023-07-20T02:04:01;96364.00;;;20.50
66299;BMP180;53098;47.658;8.578;2023-07-20T02:06:27;96355.00;;;20.80
66299;BMP180;53098;47.658;8.578;2023-07-20T02:08:52;96357.00;;;20.30
66299;BMP180;53098;47.658;8.578;2023-07-20T02:11:18;96360.00;;;20.20
66299;BMP180;53098;47.658;8.578;2023-07-20T02:13:43;96353.00;;;20.00
66299;BMP180;53098;47.658;8.578;2023-07-20T02:16:08;96356.00;;;19.60
66299;BMP180;53098;47.658;8.578;2023-07-20T02:18:34;96361.00;;;19.50
66299;BMP180;53098;47.658;8.578;2023-07-20T02:20:59;96353.00;;;19.30
66299;BMP180;53098;47.658;8.578;2023-07-20T02:23:25;96364.00;;;19.00
66299;BMP180;53098;47.658;8.578;2023-07-20T02:25:50;96358.00;;;19.00
66299;BMP180;53098;47.658;8.578;2023-07-20T02:28:15;96361.00;;;19.10
66299;BMP180;53098;47.658;8.578;2023-07-20T02:30:41;96361.00;;;19.20
66299;BMP180;53098;47.658;8.578;2023-07-20T02:33:07;96356.00;;;19.60
66299;BMP180;53098;47.658;8.578;2023-07-20T02:35:32;96349.00;;;19.30
66299;BMP180;53098;47.658;8.578;2023-07-20T02:37:58;96352.00;;;19.40
66299;BMP180;53098;47.658;8.578;2023-07-20T02:40:23;96357.00;;;19.80
66299;BMP180;53098;47.658;8.578;2023-07-20T02:42:49;96359.00;;;20.00
66299;BMP180;53098;47.658;8.578;2023-07-20T02:45:14;96356.00;;;20.10
66299;BMP180;53098;47.658;8.578;2023-07-20T02:47:40;96359.00;;;20.10
66299;BMP180;53098;47.658;8.578;2023-07-20T02:50:07;96357.00;;;20.20
66299;BMP180;53098;47.658;8.578;2023-07-20T02:52:33;96364.00;;;20.30
66299;BMP180;53098;47.658;8.578;2023-07-20T02:54:58;96355.00;;;19.80
66299;BMP180;53098;47.658;8.578;2023-07-20T02:57:24;96361.00;;;20.00
66299;BMP180;53098;47.658;8.578;2023-07-20T02:59:49;96360.00;;;19.90
66299;BMP180;53098;47.658;8.578;2023-07-20T03:02:15;96364.00;;;19.80
66299;BMP180;53098;47.658;8.578;2023-07-20T03:04:40;96363.00;;;19.40
66299;BMP180;53098;47.658;8.578;2023-07-20T03:07:06;96373.00;;;19.60
66299;BMP180;53098;47.658;8.578;2023-07-20T03:09:31;96380.00;;;19.70
66299;BMP180;53098;47.658;8.578;2023-07-20T03:11:56;96378.00;;;19.90
66299;BMP180;53098;47.658;8.578;2023-07-20T03:14:22;96378.00;;;19.90
66299;BMP180;53098;47.658;8.578;2023-07-20T03:16:47;96379.00;;;19.80
66299;BMP180;53098;47.658;8.578;2023-07-20T03:19:13;96373.00;;;19.80
66299;BMP180;53098;47.658;8.578;2023-07-20T03:21:38;96375.00;;;19.90
66299;BMP180;53098;47.658;8.578;2023-07-20T03:24:04;96378.00;;;19.60
66299;BMP180;53098;47.658;8.578;2023-07-20T03:26:29;228747.00;;;-86.00
66299;BMP180;53098;47.658;8.578;2023-07-20T03:28:55;96379.00;;;19.50
66299;BMP180;53098;47.658;8.578;2023-07-20T03:31:20;96375.00;;;19.60
66299;BMP180;53098;47.658;8.578;2023-07-20T03:33:45;96385.00;;;19.40
66299;BMP180;53098;47.658;8.578;2023-07-20T03:36:11;96381.00;;;19.50
66299;BMP180;53098;47.658;8.578;2023-07-20T03:38:36;96382.00;;;19.40
66299;BMP180;53098;47.658;8.578;2023-07-20T03:41:02;96385.00;;;19.40
66299;BMP180;53098;47.658;8.578;2023-07-20T03:43:28;96386.00;;;19.60
66299;BMP180;53098;47.658;8.578;2023-07-20T03:45:54;96390.00;;;19.60
66299;BMP180;53098;47.658;8.578;2023-07-20T03:48:23;96387.00;;;19.50
66299;BMP180;53098;47.658;8.578;2023-07-20T03:50:51;96391.00;;;19.60
66299;BMP180;53098;47.658;8.578;2023-07-20T03:53:17;96389.00;;;19.60
66299;BMP180;53098;47.658;8.578;2023-07-20T03:55:46;96388.00;;;19.50
66299;BMP180;53098;47.658;8.578;2023-07-20T03:58:13;96383.00;;;19.40
66299;BMP180;53098;47.658;8.578;2023-07-20T04:00:38;96379.00;;;19.40
66299;BMP180;53098;47.658;8.578;2023-07-20T04:03:03;228747.00;;;220.60
66299;BMP180;53098;47.658;8.578;2023-07-20T04:05:29;68965.00;;;19.40
66299;BMP180;53098;47.658;8.578;2023-07-20T04:07:55;96387.00;;;19.40
66299;BMP180;53098;47.658;8.578;2023-07-20T04:10:20;96386.00;;;19.20
66299;BMP180;53098;47.658;8.578;2023-07-20T04:12:46;96388.00;;;19.30
66299;BMP180;53098;47.658;8.578;2023-07-20T04:15:11;96387.00;;;19.30
66299;BMP180;53098;47.658;8.578;2023-07-20T04:17:37;96397.00;;;19.30
66299;BMP180;53098;47.658;8.578;2023-07-20T04:20:02;96396.00;;;19.40
66299;BMP180;53098;47.658;8.578;2023-07-20T04:22:28;96396.00;;;19.30
66299;BMP180;53098;47.658;8.578;2023-07-20T04:24:54;96394.00;;;19.30
66299;BMP180;53098;47.658;8.578;2023-07-20T04:27:19;96399.00;;;19.20
66299;BMP180;53098;47.658;8.578;2023-07-20T04:29:45;228747.00;;;220.60
66299;BMP180;53098;47.658;8.578;2023-07-20T04:32:10;228747.00;;;220.60
66299;BMP180;53098;47.658;8.578;2023-07-20T04:34:35;228747.00;;;220.60
66299;BMP180;53098;47.658;8.578;2023-07-20T04:37:01;228747.00;;;220.60
66299;BMP180;53098;47.658;8.578;2023-07-20T04:39:26;228747.00;;;220.60
66299;BMP180;53098;47.658;8.578;2023-07-20T04:41:52;228747.00;;;220.60
66299;BMP180;53098;47.658;8.578;2023-07-20T04:44:17;228747.00;;;220.60
66299;BMP180;53098;47.658;8.578;2023-07-20T04:46:42;228747.00;;;220.60
66299;BMP180;53098;47.658;8.578;2023-07-20T04:49:08;228747.00;;;220.60
66299;BMP180;53098;47.658;8.578;2023-07-20T04:51:33;228747.00;;;220.60
66299;BMP180;53098;47.658;8.578;2023-07-20T04:53:59;228747.00;;;220.60
66299;BMP180;53098;47.658;8.578;2023-07-20T04:56:24;228747.00;;;220.60
66299;BMP180;53098;47.658;8.578;2023-07-20T04:58:50;228747.00;;;220.60
66299;BMP180;53098;47.658;8.578;2023-07-20T05:01:15;228747.00;;;220.60
66299;BMP180;53098;47.658;8.578;2023-07-20T05:03:41;228747.00;;;220.60
66299;BMP180;53098;47.658;8.578;2023-07-20T05:06:06;228747.00;;;220.60
66299;BMP180;53098;47.658;8.578;2023-07-20T05:08:32;228747.00;;;220.60
66299;BMP180;53098;47.658;8.578;2023-07-20T05:10:57;228747.00;;;220.60
66299;BMP180;53098;47.658;8.578;2023-07-20T05:13:23;228747.00;;;220.60
66299;BMP180;53098;47.658;8.578;2023-07-20T05:15:51;228747.00;;;220.60
66299;BMP180;53098;47.658;8.578;2023-07-20T05:18:17;228747.00;;;220.60
66299;BMP180;53098;47.658;8.578;2023-07-20T05:20:42;228747.00;;;220.60
66299;BMP180;53098;47.658;8.578;2023-07-20T05:23:08;228747.00;;;220.60
66299;BMP180;53098;47.658;8.578;2023-07-20T05:25:33;228747.00;;;220.60
66299;BMP180;53098;47.658;8.578;2023-07-20T05:27:58;228747.00;;;220.60
66299;BMP180;53098;47.658;8.578;2023-07-20T05:30:24;228747.00;;;220.60
66299;BMP180;53098;47.658;8.578;2023-07-20T05:32:49;228747.00;;;220.60
66299;BMP180;53098;47.658;8.578;2023-07-20T05:35:15;228747.00;;;220.60
66299;BMP180;53098;47.658;8.578;2023-07-20T05:37:40;228747.00;;;220.60
66299;BMP180;53098;47.658;8.578;2023-07-20T05:40:06;228747.00;;;220.60
66299;BMP180;53098;47.658;8.578;2023-07-20T05:42:31;228747.00;;;220.60
66299;BMP180;53098;47.658;8.578;2023-07-20T05:44:57;228747.00;;;220.60
66299;BMP180;53098;47.658;8.578;2023-07-20T05:47:22;228747.00;;;220.60
66299;BMP180;53098;47.658;8.578;2023-07-20T05:49:48;228747.00;;;220.60
66299;BMP180;53098;47.658;8.578;2023-07-20T05:52:13;96404.00;;;19.40
66299;BMP180;53098;47.658;8.578;2023-07-20T05:54:39;96404.00;;;19.50
66299;BMP180;53098;47.658;8.578;2023-07-20T05:57:04;96401.00;;;19.30
66299;BMP180;53098;47.658;8.578;2023-07-20T05:59:30;96401.00;;;19.50
66299;BMP180;53098;47.658;8.578;2023-07-20T06:01:55;96405.00;;;19.50
66299;BMP180;53098;47.658;8.578;2023-07-20T06:04:21;96400.00;;;19.50
66299;BMP180;53098;47.658;8.578;2023-07-20T06:06:46;96398.00;;;19.50
66299;BMP180;53098;47.658;8.578;2023-07-20T06:09:12;96403.00;;;19.20
66299;BMP180;53098;47.658;8.578;2023-07-20T06:11:40;96402.00;;;19.30
66299;BMP180;53098;47.658;8.578;2023-07-20T06:14:05;96398.00;;;19.30
66299;BMP180;53098;47.658;8.578;2023-07-20T06:16:31;96392.00;;;19.00
66299;BMP180;53098;47.658;8.578;2023-07-20T06:18:56;96389.00;;;19.10
66299;BMP180;53098;47.658;8.578;2023-07-20T06:21:22;96389.00;;;19.10
66299;BMP180;53098;47.658;8.578;2023-07-20T06:23:48;96385.00;;;19.30
66299;BMP180;53098;47.658;8.578;2023-07-20T06:26:13;96390.00;;;19.40
66299;BMP180;53098;47.658;8.578;2023-07-20T06:28:38;96385.00;;;19.60
66299;BMP180;53098;47.658;8.578;2023-07-20T06:31:04;96390.00;;;19.40
66299;BMP180;53098;47.658;8.578;2023-07-20T06:33:29;96383.00;;;19.40
66299;BMP180;53098;47.658;8.578;2023-07-20T06:35:55;96385.00;;;19.60
66299;BMP180;53098;47.658;8.578;2023-07-20T06:38:21;96392.00;;;19.60
66299;BMP180;53098;47.658;8.578;2023-07-20T06:40:47;96388.00;;;19.60
66299;BMP180;53098;47.658;8.578;2023-07-20T06:43:12;96387.00;;;19.70
66299;BMP180;53098;47.658;8.578;2023-07-20T06:45:38;96397.00;;;19.70
66299;BMP180;53098;47.658;8.578;2023-07-20T06:48:04;96389.00;;;19.80
66299;BMP180;53098;47.658;8.578;2023-07-20T06:50:30;96391.00;;;19.90
66299;BMP180;53098;47.658;8.578;2023-07-20T06:52:55;96391.00;;;19.90
66299;BMP180;53098;47.658;8.578;2023-07-20T06:55:21;96396.00;;;20.30
66299;BMP180;53098;47.658;8.578;2023-07-20T06:57:46;96387.00;;;20.40
66299;BMP180;53098;47.658;8.578;2023-07-20T07:00:13;96385.00;;;20.30
66299;BMP180;53098;47.658;8.578;2023-07-20T07:02:39;96390.00;;;20.50
66299;BMP180;53098;47.658;8.578;2023-07-20T07:05:05;96385.00;;;20.80
66299;BMP180;53098;47.658;8.578;2023-07-20T07:07:30;96389.00;;;20.90
66299;BMP180;53098;47.658;8.578;2023-07-20T07:09:56;96389.00;;;21.10
66299;BMP180;53098;47.658;8.578;2023-07-20T07:12:21;96396.00;;;20.80
66299;BMP180;53098;47.658;8.578;2023-07-20T07:14:47;96389.00;;;21.20
66299;BMP180;53098;47.658;8.578;2023-07-20T07:17:12;96398.00;;;21.20
66299;BMP180;53098;47.658;8.578;2023-07-20T07:19:38;96387.00;;;20.80
66299;BMP180;53098;47.658;8.578;2023-07-20T07:22:03;96395.00;;;20.60
66299;BMP180;53098;47.658;8.578;2023-07-20T07:24:29;96395.00;;;20.20
66299;BMP180;53098;47.658;8.578;2023-07-20T07:26:54;96398.00;;;20.40
66299;BMP180;53098;47.658;8.578;2023-07-20T07:29:20;96395.00;;;20.10
66299;BMP180;53098;47.658;8.578;2023-07-20T07:31:45;96394.00;;;20.30
66299;BMP180;53098;47.658;8.578;2023-07-20T07:34:10;96397.00;;;20.60
66299;BMP180;53098;47.658;8.578;2023-07-20T07:36:36;96396.00;;;20.30
66299;BMP180;53098;47.658;8.578;2023-07-20T07:39:01;96393.00;;;20.20
66299;BMP180;53098;47.658;8.578;2023-07-20T07:41:27;96394.00;;;20.00
66299;BMP180;53098;47.658;8.578;2023-07-20T07:43:52;96386.00;;;20.70
66299;BMP180;53098;47.658;8.578;2023-07-20T07:46:18;96383.00;;;20.60
66299;BMP180;53098;47.658;8.578;2023-07-20T07:48:43;96390.00;;;20.70
66299;BMP180;53098;47.658;8.578;2023-07-20T07:51:08;96387.00;;;20.80
66299;BMP180;53098;47.658;8.578;2023-07-20T07:53:34;96389.00;;;21.10
66299;BMP180;53098;47.658;8.578;2023-07-20T07:55:59;96389.00;;;21.40
66299;BMP180;53098;47.658;8.578;2023-07-20T07:58:25;96380.00;;;21.40
66299;BMP180;53098;47.658;8.578;2023-07-20T08:00:50;96384.00;;;21.40
66299;BMP180;53098;47.658;8.578;2023-07-20T08:03:16;96385.00;;;21.30
66299;BMP180;53098;47.658;8.578;2023-07-20T08:05:41;96384.00;;;21.50
66299;BMP180;53098;47.658;8.578;2023-07-20T08:08:06;96387.00;;;21.70
66299;BMP180;53098;47.658;8.578;2023-07-20T08:10:32;96381.00;;;22.10
66299;BMP180;53098;47.658;8.578;2023-07-20T08:12:57;96386.00;;;22.00
66299;BMP180;53098;47.658;8.578;2023-07-20T08:15:23;96379.00;;;21.80
66299;BMP180;53098;47.658;8.578;2023-07-20T08:17:48;96378.00;;;21.90
66299;BMP180;53098;47.658;8.578;2023-07-20T08:20:14;96370.00;;;21.70
66299;BMP180;53098;47.658;8.578;2023-07-20T08:22:40;96378.00;;;22.20
66299;BMP180;53098;47.658;8.578;2023-07-20T08:25:06;96375.00;;;22.10
66299;BMP180;53098;47.658;8.578;2023-07-20T08:27:32;96384.00;;;21.80
66299;BMP180;53098;47.658;8.578;2023-07-20T08:29:57;96378.00;;;22.00
66299;BMP180;53098;47.658;8.578;2023-07-20T08:32:23;96384.00;;;22.00
66299;BMP180;53098;47.658;8.578;2023-07-20T08:34:48;96381.00;;;21.70
66299;BMP180;53098;47.658;8.578;2023-07-20T08:37:14;96384.00;;;21.70
66299;BMP180;53098;47.658;8.578;2023-07-20T08:39:39;96377.00;;;22.00
66299;BMP180;53098;47.658;8.578;2023-07-20T08:42:05;96390.00;;;22.00
66299;BMP180;53098;47.658;8.578;2023-07-20T08:44:34;96376.00;;;21.90
66299;BMP180;53098;47.658;8.578;2023-07-20T08:47:01;96371.00;;;21.60
66299;BMP180;53098;47.658;8.578;2023-07-20T08:49:27;96363.00;;;21.70
66299;BMP180;53098;47.658;8.578;2023-07-20T08:51:53;96366.00;;;21.80
66299;BMP180;53098;47.658;8.578;2023-07-20T08:54:18;96365.00;;;22.10
66299;BMP180;53098;47.658;8.578;2023-07-20T08:56:45;96368.00;;;22.00
66299;BMP180;53098;47.658;8.578;2023-07-20T08:59:13;96361.00;;;21.90
66299;BMP180;53098;47.658;8.578;2023-07-20T09:01:41;96359.00;;;22.10
66299;BMP180;53098;47.658;8.578;2023-07-20T09:04:07;96351.00;;;22.30
66299;BMP180;53098;47.658;8.578;2023-07-20T09:06:32;96360.00;;;22.30
66299;BMP180;53098;47.658;8.578;2023-07-20T09:08:58;96349.00;;;22.30
66299;BMP180;53098;47.658;8.578;2023-07-20T09:11:23;96354.00;;;22.50
66299;BMP180;53098;47.658;8.578;2023-07-20T09:14:02;96352.00;;;22.50
66299;BMP180;53098;47.658;8.578;2023-07-20T09:16:28;96348.00;;;22.80
66299;BMP180;53098;47.658;8.578;2023-07-20T09:18:53;96360.00;;;22.80
66299;BMP180;53098;47.658;8.578;2023-07-20T09:21:19;96354.00;;;22.50
66299;BMP180;53098;47.658;8.578;2023-07-20T09:23:44;96350.00;;;22.90
66299;BMP180;53098;47.658;8.578;2023-07-20T09:26:10;96349.00;;;22.70
66299;BMP180;53098;47.658;8.578;2023-07-20T09:28:42;96347.00;;;22.80
66299;BMP180;53098;47.658;8.578;2023-07-20T09:31:19;96350.00;;;22.90
66299;BMP180;53098;47.658;8.578;2023-07-20T09:33:45;96347.00;;;22.90
66299;BMP180;53098;47.658;8.578;2023-07-20T09:36:10;96344.00;;;22.40
66299;BMP180;53098;47.658;8.578;2023-07-20T09:38:36;96342.00;;;22.20
66299;BMP180;53098;47.658;8.578;2023-07-20T09:41:01;96333.00;;;22.60
66299;BMP180;53098;47.658;8.578;2023-07-20T09:43:28;96335.00;;;22.70
66299;BMP180;53098;47.658;8.578;2023-07-20T09:45:58;96329.00;;;22.00
66299;BMP180;53098;47.658;8.578;2023-07-20T09:48:24;96324.00;;;22.10
66299;BMP180;53098;47.658;8.578;2023-07-20T09:50:50;96328.00;;;22.60
66299;BMP180;53098;47.658;8.578;2023-07-20T09:53:17;96324.00;;;22.80
66299;BMP180;53098;47.658;8.578;2023-07-20T09:55:44;96312.00;;;22.20
66299;BMP180;53098;47.658;8.578;2023-07-20T09:58:10;96313.00;;;22.40
66299;BMP180;53098;47.658;8.578;2023-07-20T10:00:37;96305.00;;;22.60
66299;BMP180;53098;47.658;8.578;2023-07-20T10:03:04;96303.00;;;22.60
66299;BMP180;53098;47.658;8.578;2023-07-20T10:05:36;96309.00;;;22.90
66299;BMP180;53098;47.658;8.578;2023-07-20T10:08:04;96304.00;;;22.70
66299;BMP180;53098;47.658;8.578;2023-07-20T10:10:33;96304.00;;;23.10
66299;BMP180;53098;47.658;8.578;2023-07-20T10:13:00;96295.00;;;23.40
66299;BMP180;53098;47.658;8.578;2023-07-20T10:15:43;96302.00;;;23.40
66299;BMP180;53098;47.658;8.578;2023-07-20T10:18:30;96309.00;;;23.10
66299;BMP180;53098;47.658;8.578;2023-07-20T10:20:57;96292.00;;;23.20
66299;BMP180;53098;47.658;8.578;2023-07-20T10:23:24;96294.00;;;23.70
66299;BMP180;53098;47.658;8.578;2023-07-20T10:25:51;96296.00;;;23.70
66299;BMP180;53098;47.658;8.578;2023-07-20T10:28:17;96289.00;;;23.80
66299;BMP180;53098;47.658;8.578;2023-07-20T10:30:43;96286.00;;;23.70
66299;BMP180;53098;47.658;8.578;2023-07-20T10:33:10;96292.00;;;23.60
66299;BMP180;53098;47.658;8.578;2023-07-20T10:35:56;96281.00;;;23.80
66299;BMP180;53098;47.658;8.578;2023-07-20T10:39:02;96287.00;;;22.90
66299;BMP180;53098;47.658;8.578;2023-07-20T10:41:40;96277.00;;;23.20
66299;BMP180;53098;47.658;8.578;2023-07-20T10:44:08;96270.00;;;23.40
66299;BMP180;53098;47.658;8.578;2023-07-20T10:46:44;96271.00;;;23.60
66299;BMP180;53098;47.658;8.578;2023-07-20T10:49:10;96269.00;;;23.50
66299;BMP180;53098;47.658;8.578;2023-07-20T10:54:09;96264.00;;;23.50
66299;BMP180;53098;47.658;8.578;2023-07-20T10:56:34;96267.00;;;23.70
66299;BMP180;53098;47.658;8.578;2023-07-20T10:59:00;96254.00;;;23.70
66299;BMP180;53098;47.658;8.578;2023-07-20T11:01:30;96240.00;;;23.70
66299;BMP180;53098;47.658;8.578;2023-07-20T11:03:58;96252.00;;;23.90
66299;BMP180;53098;47.658;8.578;2023-07-20T11:11:37;96244.00;;;23.50
66299;BMP180;53098;47.658;8.578;2023-07-20T11:14:04;96239.00;;;23.70
66299;BMP180;53098;47.658;8.578;2023-07-20T11:16:47;96242.00;;;23.90
66299;BMP180;53098;47.658;8.578;2023-07-20T11:19:26;96248.00;;;24.00
66299;BMP180;53098;47.658;8.578;2023-07-20T11:21:55;96245.00;;;23.70
66299;BMP180;53098;47.658;8.578;2023-07-20T11:24:21;96244.00;;;24.00
66299;BMP180;53098;47.658;8.578;2023-07-20T11:26:52;96240.00;;;23.80
66299;BMP180;53098;47.658;8.578;2023-07-20T11:29:22;96233.00;;;23.70
66299;BMP180;53098;47.658;8.578;2023-07-20T11:31:49;96231.00;;;23.80
66299;BMP180;53098;47.658;8.578;2023-07-20T11:34:21;96231.00;;;23.90
66299;BMP180;53098;47.658;8.578;2023-07-20T11:36:50;96235.00;;;24.30
66299;BMP180;53098;47.658;8.578;2023-07-20T11:39:17;96219.00;;;23.80
66299;BMP180;53098;47.658;8.578;2023-07-20T11:41:48;96222.00;;;24.20
66299;BMP180;53098;47.658;8.578;2023-07-20T11:44:13;96229.00;;;24.10
66299;BMP180;53098;47.658;8.578;2023-07-20T11:46:44;96215.00;;;23.90
66299;BMP180;53098;47.658;8.578;2023-07-20T11:49:10;96205.00;;;24.10
66299;BMP180;53098;47.658;8.578;2023-07-20T11:51:36;96214.00;;;24.30
66299;BMP180;53098;47.658;8.578;2023-07-20T11:54:02;96202.00;;;24.30
66299;BMP180;53098;47.658;8.578;2023-07-20T11:56:28;96204.00;;;24.50
66299;BMP180;53098;47.658;8.578;2023-07-20T11:59:00;96201.00;;;24.60
66299;BMP180;53098;47.658;8.578;2023-07-20T12:01:26;96191.00;;;24.50
66299;BMP180;53098;47.658;8.578;2023-07-20T12:03:52;96191.00;;;24.60
66299;BMP180;53098;47.658;8.578;2023-07-20T12:06:17;96196.00;;;24.80
66299;BMP180;53098;47.658;8.578;2023-07-20T12:08:43;96185.00;;;24.80
66299;BMP180;53098;47.658;8.578;2023-07-20T12:11:09;96186.00;;;25.00
66299;BMP180;53098;47.658;8.578;2023-07-20T12:13:44;96193.00;;;24.80
66299;BMP180;53098;47.658;8.578;2023-07-20T12:16:13;96188.00;;;24.60
66299;BMP180;53098;47.658;8.578;2023-07-20T12:18:39;96196.00;;;24.50
66299;BMP180;53098;47.658;8.578;2023-07-20T12:21:06;96174.00;;;24.50
66299;BMP180;53098;47.658;8.578;2023-07-20T12:23:37;96173.00;;;24.40
66299;BMP180;53098;47.658;8.578;2023-07-20T12:26:06;96178.00;;;24.80
66299;BMP180;53098;47.658;8.578;2023-07-20T12:28:31;96171.00;;;25.10
66299;BMP180;53098;47.658;8.578;2023-07-20T12:30:57;96166.00;;;25.30
66299;BMP180;53098;47.658;8.578;2023-07-20T12:33:22;96178.00;;;25.10
66299;BMP180;53098;47.658;8.578;2023-07-20T12:35:48;96178.00;;;24.80
66299;BMP180;53098;47.658;8.578;2023-07-20T12:38:14;96179.00;;;25.10
66299;BMP180;53098;47.658;8.578;2023-07-20T12:40:39;96169.00;;;24.90
66299;BMP180;53098;47.658;8.578;2023-07-20T12:43:05;96166.00;;;25.10
66299;BMP180;53098;47.658;8.578;2023-07-20T12:45:30;96160.00;;;24.80
66299;BMP180;53098;47.658;8.578;2023-07-20T12:47:56;96159.00;;;24.80
66299;BMP180;53098;47.658;8.578;2023-07-20T12:50:21;96164.00;;;25.10
66299;BMP180;53098;47.658;8.578;2023-07-20T12:52:47;96156.00;;;25.10
66299;BMP180;53098;47.658;8.578;2023-07-20T12:55:12;96161.00;;;24.50
66299;BMP180;53098;47.658;8.578;2023-07-20T12:57:38;96151.00;;;24.70
66299;BMP180;53098;47.658;8.578;2023-07-20T13:00:05;96149.00;;;24.80
66299;BMP180;53098;47.658;8.578;2023-07-20T13:02:32;96145.00;;;25.10
66299;BMP180;53098;47.658;8.578;2023-07-20T13:04:58;96145.00;;;25.20
66299;BMP180;53098;47.658;8.578;2023-07-20T13:07:30;96146.00;;;25.40
66299;BMP180;53098;47.658;8.578;2023-07-20T13:09:56;96137.00;;;25.50
66299;BMP180;53098;47.658;8.578;2023-07-20T13:12:21;96146.00;;;25.40
66299;BMP180;53098;47.658;8.578;2023-07-20T13:14:47;96143.00;;;25.20
66299;BMP180;53098;47.658;8.578;2023-07-20T13:17:12;96135.00;;;25.40
66299;BMP180;53098;47.658;8.578;2023-07-20T13:19:38;96145.00;;;25.70
66299;BMP180;53098;47.658;8.578;2023-07-20T13:22:03;96136.00;;;25.70
66299;BMP180;53098;47.658;8.578;2023-07-20T13:24:29;96130.00;;;25.80
66299;BMP180;53098;47.658;8.578;2023-07-20T13:26:54;96124.00;;;25.90
66299;BMP180;53098;47.658;8.578;2023-07-20T13:29:20;96129.00;;;25.90
66299;BMP180;53098;47.658;8.578;2023-07-20T13:31:45;96125.00;;;25.90
66299;BMP180;53098;47.658;8.578;2023-07-20T13:34:10;96123.00;;;25.80
66299;BMP180;53098;47.658;8.578;2023-07-20T13:36:36;96126.00;;;25.60
66299;BMP180;53098;47.658;8.578;2023-07-20T13:39:01;96122.00;;;25.70
66299;BMP180;53098;47.658;8.578;2023-07-20T13:41:27;96122.00;;;25.80
66299;BMP180;53098;47.658;8.578;2023-07-20T13:43:52;96109.00;;;25.70
66299;BMP180;53098;47.658;8.578;2023-07-20T13:46:18;96106.00;;;25.80
66299;BMP180;53098;47.658;8.578;2023-07-20T13:48:43;96098.00;;;25.90
66299;BMP180;53098;47.658;8.578;2023-07-20T13:51:08;96102.00;;;26.00
66299;BMP180;53098;47.658;8.578;2023-07-20T13:53:34;96101.00;;;25.70
66299;BMP180;53098;47.658;8.578;2023-07-20T13:55:59;96103.00;;;26.00
66299;BMP180;53098;47.658;8.578;2023-07-20T13:58:25;96103.00;;;25.90
66299;BMP180;53098;47.658;8.578;2023-07-20T14:00:50;224701.00;;;26.00
66299;BMP180;53098;47.658;8.578;2023-07-20T14:03:16;96097.00;;;26.10
66299;BMP180;53098;47.658;8.578;2023-07-20T14:05:41;96089.00;;;26.20
66299;BMP180;53098;47.658;8.578;2023-07-20T14:08:06;96079.00;;;26.30
66299;BMP180;53098;47.658;8.578;2023-07-20T14:10:32;96076.00;;;26.40
66299;BMP180;53098;47.658;8.578;2023-07-20T14:12:57;96082.00;;;26.10
66299;BMP180;53098;47.658;8.578;2023-07-20T14:15:23;96080.00;;;26.30
66299;BMP180;53098;47.658;8.578;2023-07-20T14:17:48;96079.00;;;26.60
66299;BMP180;53098;47.658;8.578;2023-07-20T14:20:14;96080.00;;;26.80
66299;BMP180;53098;47.658;8.578;2023-07-20T14:22:39;96083.00;;;26.90
66299;BMP180;53098;47.658;8.578;2023-07-20T14:25:05;96079.00;;;27.00